Welcome to Northern Hawkes Bay. New Zealand.
PWS Header
      nz Flag



Hit Counter


W3C Valid W3C Valid logo


    Wairoa

Select any of the Stations below to visit their websites.










Historic Data from Weather Underground
Select the location of interest below. Wairoa is the default. Please have patience, this Data is slow to load in.
Northern Hawkes Bay Historical Data
Daily Summary for June 23, 2017 Units:  English    Metric   Both
« Previous Day
Next Day »
Daily Weekly Monthly Yearly Custom
  High: Low: Average:
Temperature: 57.7 °F 52.3 °F 54 °F
Dew Point: 57.6 °F 51.8 °F 53.2 °F
Humidity: 99% 97% 98%
Wind Speed: 9.2mph 0mph 1.1mph
Wind Gust: 13mph - -
Wind- - SW
Pressure: 29.8 in 29.4 in -
Precipitation: 0.39 in    
Historical Graphs
 
 
Tabular Data for June 23, 2017
Time Temperature Dew Point Pressure Wind Wind Speed Wind Gust Humidity Rainfall Rate (Hourly) solar
00:01 57.7 °F 57.6 °F 29.7 in East 8.3 mph 13 mph 99% 0 in 0 W/m2
00:06 57 °F 56.8 °F 29.7 in ENE 6.9 mph 12.1 mph 99% 0 in 0 W/m2
00:11 55 °F 54.1 °F 29.8 in NE 5.4 mph 12.1 mph 97% 0 in 0 W/m2
00:16 54.1 °F 53.2 °F 29.7 in NNE 8.3 mph 10.7 mph 97% 0.01 in 0 W/m2
00:21 53.8 °F 53.1 °F 29.7 in NNE 9.2 mph 12.1 mph 97% 0.01 in 0 W/m2
00:26 53.8 °F 53.1 °F 29.7 in NNE 3.8 mph 13 mph 97% 0.01 in 0 W/m2
00:31 53.8 °F 53.1 °F 29.7 in NNE 3.1 mph 13 mph 97% 0.01 in 0 W/m2
00:36 53.8 °F 53.1 °F 29.7 in North 4.5 mph 12.1 mph 97% 0.01 in 0 W/m2
00:41 53.8 °F 53.1 °F 29.7 in NNW 3.1 mph 12.1 mph 97% 0.01 in 0 W/m2
00:46 53.8 °F 53.1 °F 29.7 in North 6 mph 10.7 mph 97% 0.01 in 0 W/m2
00:51 54 °F 53.1 °F 29.7 in NNE 5.4 mph 10.7 mph 97% 0.01 in 0 W/m2
00:56 53.8 °F 53.1 °F 29.7 in NNE 3.8 mph 10.7 mph 97% 0.01 in 0 W/m2
01:01 53.8 °F 53.1 °F 29.7 in NNE 6 mph 9.2 mph 97% 0.01 in 0 W/m2
01:06 53.8 °F 53.1 °F 29.7 in North 4.5 mph 9.2 mph 97% 0.01 in 0 W/m2
01:11 53.8 °F 53.1 °F 29.7 in North 4.5 mph 9.2 mph 97% 0 in 0 W/m2
01:16 53.6 °F 52.9 °F 29.7 in North 3.8 mph 8.3 mph 97% 0 in 0 W/m2
01:21 53.6 °F 52.9 °F 29.7 in North 6 mph 8.3 mph 97% 0 in 0 W/m2
01:26 53.6 °F 52.9 °F 29.7 in North 6 mph 9.8 mph 97% 0 in 0 W/m2
01:31 53.6 °F 52.9 °F 29.7 in North 5.4 mph 9.8 mph 97% 0 in 0 W/m2
01:36 53.4 °F 52.9 °F 29.7 in North 5.4 mph 9.2 mph 98% 0 in 0 W/m2
01:41 53.4 °F 52.9 °F 29.7 in North 6 mph 9.2 mph 98% 0 in 0 W/m2
01:46 53.4 °F 52.9 °F 29.7 in North 3.8 mph 8.3 mph 98% 0 in 0 W/m2
01:51 53.4 °F 52.9 °F 29.7 in North 3.1 mph 6.9 mph 98% 0 in 0 W/m2
01:56 53.2 °F 52.7 °F 29.7 in NNE 0.7 mph 6.9 mph 98% 0 in 0 W/m2
02:01 53.1 °F 52.5 °F 29.7 in NE 0.7 mph 5.4 mph 98% 0 in 0 W/m2
02:06 53.1 °F 52.5 °F 29.7 in NNE 1.6 mph 3.8 mph 98% 0 in 0 W/m2
02:11 52.9 °F 52.3 °F 29.7 in Calm   3.8 mph 98% 0 in 0 W/m2
02:16 52.9 °F 52.3 °F 29.7 in NNE 2.2 mph 3.8 mph 98% 0 in 0 W/m2
02:21 53.1 °F 52.5 °F 29.7 in NNE 1.6 mph 3.8 mph 98% 0 in 0 W/m2
02:26 53.1 °F 52.5 °F 29.7 in NNE 2.2 mph 3.8 mph 98% 0 in 0 W/m2
02:31 53.2 °F 52.7 °F 29.7 in North 2.2 mph 4.5 mph 98% 0 in 0 W/m2
02:36 53.1 °F 52.5 °F 29.7 in North 2.2 mph 4.5 mph 98% 0 in 0 W/m2
02:41 52.9 °F 52.3 °F 29.7 in North 1.6 mph 3.8 mph 98% 0 in 0 W/m2
02:46 52.7 °F 52.2 °F 29.7 in North 0.7 mph 4.5 mph 98% 0 in 0 W/m2
02:51 52.5 °F 52 °F 29.7 in North 1.6 mph 4.5 mph 98% 0 in 0 W/m2
02:56 52.5 °F 52 °F 29.7 in North 0.7 mph 3.8 mph 98% 0 in 0 W/m2
03:01 52.5 °F 52 °F 29.7 in NNE 1.6 mph 3.8 mph 98% 0 in 0 W/m2
03:06 52.7 °F 52.2 °F 29.7 in North 2.2 mph 4.5 mph 98% 0 in 0 W/m2
03:11 52.7 °F 52.2 °F 29.7 in North 3.1 mph 4.5 mph 98% 0 in 0 W/m2
03:16 52.9 °F 52.3 °F 29.7 in NNW 1.6 mph 4.5 mph 98% 0 in 0 W/m2
03:21 52.7 °F 52.2 °F 29.7 in Calm   4.5 mph 98% 0 in 0 W/m2
03:26 52.5 °F 52 °F 29.7 in SE 0.7 mph 3.1 mph 98% 0 in 0 W/m2
03:31 52.3 °F 51.8 °F 29.7 in Calm   2.2 mph 98% 0 in 0 W/m2
03:36 52.5 °F 52 °F 29.7 in Calm   1.6 mph 98% 0 in 0 W/m2
03:41 52.5 °F 52 °F 29.7 in NNW 0.7 mph 1.6 mph 98% 0 in 0 W/m2
03:46 52.5 °F 52 °F 29.7 in NW 1.6 mph 2.2 mph 98% 0 in 0 W/m2
03:51 52.5 °F 52 °F 29.7 in NW 0.7 mph 2.2 mph 98% 0 in 0 W/m2
03:56 52.5 °F 52 °F 29.7 in NW 1.6 mph 3.1 mph 98% 0 in 0 W/m2
04:01 52.5 °F 52 °F 29.7 in NW 1.6 mph 3.1 mph 98% 0 in 0 W/m2
04:06 52.5 °F 52 °F 29.7 in Calm   3.1 mph 98% 0 in 0 W/m2
04:11 52.5 °F 52 °F 29.7 in NW 0.7 mph 2.2 mph 98% 0 in 0 W/m2
04:16 52.7 °F 52.2 °F 29.7 in NNW 1.6 mph 3.1 mph 98% 0 in 0 W/m2
04:21 52.9 °F 52.3 °F 29.7 in NW 2.2 mph 3.1 mph 98% 0 in 0 W/m2
04:24 52.9 °F 52.3 °F 29.7 in NW 2.2 mph 3.8 mph 98% 0 in 0 W/m2
04:29 52.9 °F 52.3 °F 29.7 in NW 1.6 mph 3.8 mph 98% 0 in 0 W/m2
04:34 52.9 °F 52.3 °F 29.7 in NW 2.2 mph 3.8 mph 98% 0 in 0 W/m2
04:39 52.9 °F 52.3 °F 29.7 in NW 2.2 mph 3.8 mph 98% 0 in 0 W/m2
04:44 52.9 °F 52.3 °F 29.7 in NW 2.2 mph 3.8 mph 98% 0 in 0 W/m2
04:49 52.9 °F 52.3 °F 29.7 in NW 1.6 mph 3.8 mph 98% 0 in 0 W/m2
04:54 52.9 °F 52.3 °F 29.7 in NW 2.2 mph 3.1 mph 98% 0 in 0 W/m2
04:59 52.7 °F 52.2 °F 29.7 in NNW 0.7 mph 3.1 mph 98% 0 in 0 W/m2
05:05 52.7 °F 52.2 °F 29.7 in NNW 1.6 mph 3.1 mph 98% 0 in 0 W/m2
05:10 52.7 °F 52.2 °F 29.7 in NNW 0.7 mph 2.2 mph 98% 0 in 0 W/m2
05:15 52.7 °F 52.2 °F 29.7 in NW 1.6 mph 2.2 mph 98% 0 in 0 W/m2
05:20 52.7 °F 52.2 °F 29.7 in NW 2.2 mph 3.1 mph 98% 0 in 0 W/m2
05:25 52.7 °F 52.2 °F 29.7 in NW 1.6 mph 3.1 mph 98% 0 in 0 W/m2
05:30 52.7 °F 52.2 °F 29.7 in NW 2.2 mph 3.8 mph 98% 0 in 0 W/m2
05:35 52.7 °F 52.2 °F 29.7 in NW 1.6 mph 3.8 mph 98% 0 in 0 W/m2
05:40 52.7 °F 52.2 °F 29.7 in NW 2.2 mph 3.8 mph 98% 0 in 0 W/m2
05:45 52.7 °F 52.2 °F 29.7 in NW 1.6 mph 3.1 mph 98% 0 in 0 W/m2
05:50 52.7 °F 52.2 °F 29.7 in NW 0.7 mph 3.1 mph 98% 0 in 0 W/m2
05:55 52.7 °F 52.2 °F 29.7 in NW 1.6 mph 3.1 mph 98% 0 in 0 W/m2
06:12 52.5 °F 52 °F 29.7 in Calm   3.1 mph 98% 0 in 0 W/m2
06:17 52.5 °F 52 °F 29.7 in Calm   3.1 mph 98% 0 in 0 W/m2
06:22 52.5 °F 52 °F 29.7 in NNE 0.7 mph 1.6 mph 98% 0 in 0 W/m2
06:27 52.5 °F 52 °F 29.7 in North 0.7 mph 2.2 mph 98% 0 in 0 W/m2
06:32 52.5 °F 52 °F 29.7 in NW 2.2 mph 3.1 mph 98% 0 in 0 W/m2
06:37 52.5 °F 52 °F 29.7 in NW 3.1 mph 5.4 mph 98% 0 in 0 W/m2
06:42 52.5 °F 52 °F 29.7 in NW 0.7 mph 5.4 mph 98% 0 in 0 W/m2
06:47 52.7 °F 52.2 °F 29.7 in NW 0.7 mph 3.1 mph 98% 0 in 0 W/m2
06:52 52.7 °F 52.2 °F 29.7 in NW 1.6 mph 3.1 mph 98% 0 in 0 W/m2
06:57 52.5 °F 52 °F 29.7 in NNW 0.7 mph 3.1 mph 98% 0 in 0 W/m2
07:02 52.5 °F 52 °F 29.7 in NW 0.7 mph 3.1 mph 98% 0 in 0 W/m2
07:07 52.5 °F 52 °F 29.7 in Calm   3.1 mph 98% 0 in 0 W/m2
07:12 52.5 °F 52 °F 29.7 in Calm   1.6 mph 98% 0 in 0 W/m2
07:17 52.5 °F 52 °F 29.7 in West 0.7 mph 1.6 mph 98% 0 in 0 W/m2
07:22 52.5 °F 52 °F 29.7 in WNW 0.7 mph 1.6 mph 98% 0 in 0 W/m2
07:27 52.5 °F 52 °F 29.7 in NNE 1.6 mph 3.8 mph 98% 0 in 0 W/m2
07:32 52.5 °F 52 °F 29.7 in Calm   3.8 mph 98% 0 in 0 W/m2
07:37 52.5 °F 52 °F 29.7 in NNE 0.7 mph 3.1 mph 98% 0 in 0 W/m2
07:42 52.5 °F 52 °F 29.7 in Calm   2.2 mph 98% 0 in 1 W/m2
07:47 52.5 °F 52 °F 29.7 in Calm   1.6 mph 98% 0 in 4 W/m2
07:52 52.5 °F 52 °F 29.7 in Calm   0.7 mph 98% 0 in 7 W/m2
07:57 52.5 °F 52 °F 29.7 in Calm   0.7 mph 98% 0 in 9 W/m2
08:02 52.5 °F 52 °F 29.7 in North 0.7 mph 2.2 mph 98% 0 in 8 W/m2
08:07 52.5 °F 52 °F 29.7 in Calm   2.2 mph 98% 0 in 12 W/m2
08:12 52.7 °F 52.2 °F 29.7 in Calm   2.2 mph 98% 0 in 18 W/m2
08:17 52.7 °F 52.2 °F 29.7 in Calm   0.7 mph 98% 0 in 26 W/m2
08:22 52.9 °F 52.3 °F 29.7 in NW 0.7 mph 2.2 mph 98% 0 in 23 W/m2
08:27 53.1 °F 52.5 °F 29.7 in NW 0.7 mph 2.2 mph 98% 0 in 24 W/m2
08:32 53.1 °F 52.5 °F 29.7 in NNW 1.6 mph 2.2 mph 98% 0 in 23 W/m2
08:37 53.2 °F 52.7 °F 29.7 in NNW 0.7 mph 2.2 mph 98% 0 in 28 W/m2
08:42 53.2 °F 52.7 °F 29.7 in NNW 0.7 mph 2.2 mph 98% 0 in 32 W/m2
08:47 53.6 °F 52.9 °F 29.7 in NNW 0.7 mph 2.2 mph 97% 0 in 29 W/m2
08:52 53.6 °F 52.9 °F 29.7 in North 0.7 mph 2.2 mph 97% 0 in 24 W/m2
08:57 53.6 °F 52.9 °F 29.7 in Calm   2.2 mph 97% 0 in 28 W/m2
09:02 53.6 °F 52.9 °F 29.7 in NNW 1.6 mph 2.2 mph 97% 0 in 33 W/m2
09:07 53.8 °F 53.1 °F 29.7 in NNW 0.7 mph 3.1 mph 97% 0.01 in 42 W/m2
09:12 53.8 °F 53.1 °F 29.7 in NNW 0.7 mph 3.1 mph 97% 0.01 in 49 W/m2
09:17 54 °F 53.1 °F 29.7 in North 1.6 mph 2.2 mph 97% 0.01 in 50 W/m2
09:22 54 °F 53.1 °F 29.7 in NNW 1.6 mph 2.2 mph 97% 0.01 in 46 W/m2
09:27 54 °F 53.1 °F 29.7 in NW 0.7 mph 2.2 mph 97% 0.01 in 47 W/m2
09:33 54.1 °F 53.2 °F 29.7 in NNW 0.7 mph 2.2 mph 97% 0.01 in 46 W/m2
09:38 54.3 °F 53.4 °F 29.7 in NNW 0.7 mph 2.2 mph 97% 0.01 in 39 W/m2
09:43 54.1 °F 53.2 °F 29.7 in NNW 0.7 mph 2.2 mph 97% 0.01 in 53 W/m2
09:48 54.3 °F 53.4 °F 29.7 in NW 1.6 mph 2.2 mph 97% 0.01 in 56 W/m2
09:53 54.3 °F 53.4 °F 29.7 in NW 0.7 mph 2.2 mph 97% 0.01 in 50 W/m2
09:58 54.5 °F 53.8 °F 29.7 in NNW 0.7 mph 2.2 mph 97% 0.01 in 53 W/m2
10:03 54.5 °F 53.8 °F 29.7 in NNW 0.7 mph 3.1 mph 97% 0.01 in 47 W/m2
10:08 54.5 °F 53.8 °F 29.7 in NNW 2.2 mph 3.1 mph 97% 0 in 42 W/m2
10:13 54.5 °F 53.8 °F 29.7 in NNW 1.6 mph 3.1 mph 97% 0 in 38 W/m2
10:18 54.5 °F 53.8 °F 29.7 in Calm   3.1 mph 97% 0 in 35 W/m2
10:23 54.5 °F 53.8 °F 29.7 in Calm   1.6 mph 97% 0 in 30 W/m2
10:28 54.7 °F 54 °F 29.6 in Calm   1.6 mph 97% 0.01 in 37 W/m2
10:33 54.7 °F 54 °F 29.7 in West 0.7 mph 1.6 mph 97% 0.01 in 37 W/m2
10:38 54.7 °F 54 °F 29.7 in NNW 0.7 mph 2.2 mph 97% 0.01 in 35 W/m2
10:43 54.7 °F 54 °F 29.7 in North 1.6 mph 2.2 mph 97% 0.01 in 33 W/m2
10:48 54.5 °F 53.8 °F 29.6 in NNW 0.7 mph 2.2 mph 97% 0.01 in 35 W/m2
10:53 54.5 °F 53.8 °F 29.6 in NW 0.7 mph 3.1 mph 97% 0.01 in 32 W/m2
10:58 54.5 °F 53.8 °F 29.6 in Calm   3.1 mph 97% 0.02 in 29 W/m2
11:03 54.7 °F 54 °F 29.6 in Calm   2.2 mph 97% 0.02 in 26 W/m2
11:08 54.7 °F 54 °F 29.6 in North 0.7 mph 1.6 mph 97% 0.04 in 24 W/m2
11:13 54.7 °F 54 °F 29.6 in Calm   1.6 mph 97% 0.04 in 21 W/m2
11:18 54.7 °F 54 °F 29.6 in Calm   1.6 mph 97% 0.05 in 19 W/m2
11:23 54.5 °F 53.8 °F 29.6 in Calm   0.7 mph 97% 0.06 in 22 W/m2
11:28 54.7 °F 54 °F 29.6 in Calm   1.6 mph 97% 0.05 in 24 W/m2
11:33 54.5 °F 53.8 °F 29.6 in Calm   1.6 mph 97% 0.05 in 22 W/m2
11:38 54.5 °F 53.8 °F 29.6 in NW 1.6 mph 3.1 mph 97% 0.06 in 21 W/m2
11:43 54.5 °F 53.8 °F 29.6 in Calm   3.1 mph 97% 0.06 in 30 W/m2
11:48 54.7 °F 54 °F 29.6 in Calm   2.2 mph 97% 0.07 in 36 W/m2
11:53 54.9 °F 54 °F 29.6 in Calm   0.7 mph 97% 0.07 in 37 W/m2
11:58 55 °F 54.1 °F 29.6 in SW 0.7 mph 2.2 mph 97% 0.06 in 38 W/m2
12:03 55 °F 54.1 °F 29.6 in SSW 0.7 mph 2.2 mph 97% 0.06 in 33 W/m2
12:08 55 °F 54.1 °F 29.6 in Calm   2.2 mph 97% 0.06 in 26 W/m2
12:13 54.9 °F 54 °F 29.6 in NW 0.7 mph 2.2 mph 97% 0.06 in 22 W/m2
12:18 54.9 °F 54 °F 29.6 in NNW 1.6 mph 2.2 mph 97% 0.06 in 19 W/m2
12:23 54.9 °F 54 °F 29.6 in NNW 1.6 mph 3.1 mph 97% 0.05 in 22 W/m2
12:28 54.9 °F 54 °F 29.6 in NNW 3.8 mph 5.4 mph 97% 0.06 in 21 W/m2
12:33 54.7 °F 54 °F 29.6 in NNW 3.8 mph 5.4 mph 97% 0.06 in 21 W/m2
12:38 54.7 °F 54 °F 29.6 in NNW 6 mph 7.6 mph 97% 0.06 in 22 W/m2
12:43 54.5 °F 53.8 °F 29.6 in NNW 1.6 mph 7.6 mph 97% 0.07 in 30 W/m2
12:48 54.5 °F 53.8 °F 29.6 in NNW 6.9 mph 7.6 mph 97% 0.08 in 25 W/m2
12:53 54.5 °F 53.8 °F 29.6 in SSE 2.2 mph 8.3 mph 97% 0.11 in 31 W/m2
12:58 54.5 °F 53.8 °F 29.6 in SSE 2.2 mph 8.3 mph 97% 0.12 in 22 W/m2
13:03 54.5 °F 53.8 °F 29.6 in Calm   5.4 mph 97% 0.12 in 22 W/m2
13:08 54.5 °F 53.8 °F 29.6 in Calm   3.8 mph 97% 0.13 in 21 W/m2
13:13 54.5 °F 53.8 °F 29.6 in Calm   1.6 mph 97% 0.14 in 23 W/m2
13:18 54.5 °F 53.8 °F 29.6 in Calm   1.6 mph 97% 0.15 in 20 W/m2
13:23 54.5 °F 53.8 °F 29.6 in NE 0.7 mph 1.6 mph 97% 0.17 in 16 W/m2
13:28 54.5 °F 53.8 °F 29.6 in Calm   1.6 mph 97% 0.18 in 14 W/m2
13:33 54.5 °F 53.8 °F 29.6 in Calm   1.6 mph 97% 0.19 in 22 W/m2
13:38 54.5 °F 53.8 °F 29.6 in Calm   0.7 mph 97% 0.19 in 28 W/m2
13:43 54.5 °F 53.8 °F 29.6 in NNE 1.6 mph 1.6 mph 97% 0.19 in 27 W/m2
13:48 54.7 °F 54 °F 29.6 in Calm   1.6 mph 97% 0.17 in 37 W/m2
13:53 54.9 °F 54 °F 29.5 in Calm   1.6 mph 97% 0.15 in 45 W/m2
13:58 55 °F 54.1 °F 29.5 in Calm   1.6 mph 97% 0.14 in 47 W/m2
14:03 55 °F 54.1 °F 29.5 in Calm   0.7 mph 97% 0.14 in 62 W/m2
14:08 55 °F 54.1 °F 29.5 in Calm   0.7 mph 97% 0.12 in 69 W/m2
14:13 55 °F 54.1 °F 29.5 in Calm   0.7 mph 97% 0.11 in 76 W/m2
14:18 55.4 °F 55 °F 29.5 in Calm     99% 0.09 in 66 W/m2
14:23 55.4 °F 55 °F 29.5 in Calm   1.6 mph 99% 0.08 in 74 W/m2
14:28 55.4 °F 55 °F 29.5 in Calm   1.6 mph 99% 0.06 in 64 W/m2
14:33 55.4 °F 55 °F 29.5 in Calm   1.6 mph 99% 0.04 in 36 W/m2
14:38 55.4 °F 55 °F 29.5 in Calm   1.6 mph 99% 0.02 in 30 W/m2
14:43 55.4 °F 55 °F 29.5 in Calm   1.6 mph 99% 0.01 in 33 W/m2
14:48 55.4 °F 55 °F 29.5 in Calm   1.6 mph 99% 0.01 in 42 W/m2
14:53 55.4 °F 55 °F 29.5 in Calm   1.6 mph 99% 0.01 in 48 W/m2
14:58 55.6 °F 55.2 °F 29.5 in Calm   1.6 mph 99% 0 in 39 W/m2
15:03 55.6 °F 55.2 °F 29.5 in Calm   0.7 mph 99% 0 in 40 W/m2
15:08 55.6 °F 55.2 °F 29.5 in Calm   0.7 mph 99% 0 in 49 W/m2
15:13 55.6 °F 55.2 °F 29.5 in ESE 0.7 mph 1.6 mph 99% 0 in 51 W/m2
15:18 55.4 °F 55 °F 29.5 in East 0.7 mph 2.2 mph 99% 0 in 58 W/m2
15:23 55.4 °F 55 °F 29.5 in East 0.7 mph 2.2 mph 99% 0 in 60 W/m2
15:28 55.4 °F 55 °F 29.5 in ENE 0.7 mph 2.2 mph 99% 0 in 59 W/m2
15:33 55.8 °F 55.6 °F 29.5 in Calm   2.2 mph 99% 0 in 69 W/m2
15:39 55.9 °F 55.8 °F 29.5 in SSE 0.7 mph 2.2 mph 99% 0 in 68 W/m2
15:44 55.9 °F 55.8 °F 29.5 in Calm   2.2 mph 99% 0 in 60 W/m2
15:49 55.9 °F 55.8 °F 29.5 in Calm   1.6 mph 99% 0 in 54 W/m2
15:54 55.8 °F 55.6 °F 29.5 in South 0.7 mph 2.2 mph 99% 0 in 50 W/m2
15:59 55.8 °F 55.6 °F 29.5 in South 0.7 mph 2.2 mph 99% 0 in 41 W/m2
16:04 55.6 °F 55.2 °F 29.5 in Calm   2.2 mph 99% 0 in 36 W/m2
16:09 55.6 °F 55.2 °F 29.5 in Calm   2.2 mph 99% 0 in 31 W/m2
16:14 55.6 °F 55.2 °F 29.5 in Calm   0.7 mph 99% 0 in 26 W/m2
16:19 55.4 °F 55 °F 29.5 in SSW 0.7 mph 1.6 mph 99% 0 in 20 W/m2
16:37 54.9 °F 54 °F 29.5 in Calm   2.2 mph 97% 0 in 3 W/m2
16:42 54.9 °F 54 °F 29.5 in Calm   1.6 mph 97% 0 in 1 W/m2
16:47 54.9 °F 54 °F 29.5 in WSW 0.7 mph 1.6 mph 97% 0 in 0 W/m2
16:52 54.7 °F 54 °F 29.5 in South 1.6 mph 2.2 mph 97% 0 in 0 W/m2
16:57 54.7 °F 54 °F 29.5 in South 0.7 mph 2.2 mph 97% 0 in 0 W/m2
17:02 54.5 °F 53.8 °F 29.5 in Calm   2.2 mph 97% 0 in 0 W/m2
17:07 54.5 °F 53.8 °F 29.5 in Calm   1.6 mph 97% 0 in 0 W/m2
17:12 54.3 °F 53.4 °F 29.5 in Calm   1.6 mph 97% 0 in 0 W/m2
17:30 54.3 °F 53.4 °F 29.5 in Calm   1.6 mph 97% 0 in 0 W/m2
17:35 54.3 °F 53.4 °F 29.5 in Calm   1.6 mph 97% 0 in 0 W/m2
17:40 54.3 °F 53.4 °F 29.5 in Calm   1.6 mph 97% 0 in 0 W/m2
17:45 54.3 °F 53.4 °F 29.5 in Calm   0.7 mph 97% 0 in 0 W/m2
17:50 54.1 °F 53.2 °F 29.5 in Calm     97% 0 in 0 W/m2
17:55 54.1 °F 53.2 °F 29.5 in Calm   0.7 mph 97% 0 in 0 W/m2
18:00 54.1 °F 53.2 °F 29.5 in Calm   0.7 mph 97% 0 in 0 W/m2
18:05 54.1 °F 53.2 °F 29.5 in SSE 0.7 mph 1.6 mph 97% 0 in 0 W/m2
18:10 54.1 °F 53.2 °F 29.5 in Calm   1.6 mph 97% 0 in 0 W/m2
18:15 54.1 °F 53.2 °F 29.5 in Calm   1.6 mph 97% 0 in 0 W/m2
18:20 54.1 °F 53.2 °F 29.5 in ESE 0.7 mph 1.6 mph 97% 0 in 0 W/m2
18:25 54.1 °F 53.2 °F 29.5 in SE 0.7 mph 2.2 mph 97% 0 in 0 W/m2
18:30 54 °F 53.1 °F 29.5 in SSE 1.6 mph 2.2 mph 97% 0 in 0 W/m2
18:35 54 °F 53.1 °F 29.5 in Calm   2.2 mph 97% 0 in 0 W/m2
18:40 54 °F 53.1 °F 29.5 in Calm   2.2 mph 97% 0 in 0 W/m2
18:45 54 °F 53.1 °F 29.5 in Calm   1.6 mph 97% 0 in 0 W/m2
18:50 54.1 °F 53.2 °F 29.5 in Calm   1.6 mph 97% 0 in 0 W/m2
18:55 54.1 °F 53.2 °F 29.5 in Calm     97% 0 in 0 W/m2
19:00 54.1 °F 53.2 °F 29.5 in Calm   1.6 mph 97% 0 in 0 W/m2
19:05 54.1 °F 53.2 °F 29.5 in Calm   1.6 mph 97% 0 in 0 W/m2
19:10 54.3 °F 53.4 °F 29.5 in Calm   0.7 mph 97% 0 in 0 W/m2
19:15 54.3 °F 53.4 °F 29.5 in Calm     97% 0 in 0 W/m2
19:20 54.3 °F 53.4 °F 29.5 in Calm     97% 0 in 0 W/m2
19:25 54.3 °F 53.4 °F 29.5 in Calm     97% 0 in 0 W/m2
19:30 54.1 °F 53.2 °F 29.5 in Calm     97% 0 in 0 W/m2
19:35 54.3 °F 53.4 °F 29.5 in Calm     97% 0 in 0 W/m2
19:40 54.1 °F 53.2 °F 29.5 in Calm     97% 0 in 0 W/m2
19:45 54.3 °F 53.4 °F 29.5 in Calm     97% 0 in 0 W/m2
19:50 54.1 °F 53.2 °F 29.5 in Calm   1.6 mph 97% 0 in 0 W/m2
19:55 54.1 °F 53.2 °F 29.5 in Calm   1.6 mph 97% 0 in 0 W/m2
20:00 54.1 °F 53.2 °F 29.5 in NNE 0.7 mph 1.6 mph 97% 0 in 0 W/m2
20:05 54.1 °F 53.2 °F 29.5 in Calm   1.6 mph 97% 0 in 0 W/m2
20:10 54.1 °F 53.2 °F 29.5 in Calm   1.6 mph 97% 0 in 0 W/m2
20:15 54.1 °F 53.2 °F 29.5 in Calm   0.7 mph 97% 0 in 0 W/m2
20:20 54.1 °F 53.2 °F 29.5 in Calm     97% 0 in 0 W/m2
20:25 54.1 °F 53.2 °F 29.5 in Calm     97% 0 in 0 W/m2
20:30 54.1 °F 53.2 °F 29.5 in Calm     97% 0 in 0 W/m2
20:35 54.1 °F 53.2 °F 29.5 in Calm     97% 0 in 0 W/m2
20:40 54.1 °F 53.2 °F 29.5 in Calm     97% 0 in 0 W/m2
20:45 54.1 °F 53.2 °F 29.5 in NW 1.6 mph 2.2 mph 97% 0 in 0 W/m2
20:50 54.1 °F 53.2 °F 29.5 in NW 0.7 mph 2.2 mph 97% 0 in 0 W/m2
20:55 54 °F 53.1 °F 29.5 in Calm   2.2 mph 97% 0 in 0 W/m2
21:00 54 °F 53.1 °F 29.5 in NW 1.6 mph 2.2 mph 97% 0 in 0 W/m2
21:05 54 °F 53.1 °F 29.5 in WNW 0.7 mph 2.2 mph 97% 0 in 0 W/m2
21:10 54 °F 53.1 °F 29.5 in WNW 0.7 mph 2.2 mph 97% 0 in 0 W/m2
21:15 54 °F 53.1 °F 29.5 in NW 0.7 mph 2.2 mph 97% 0 in 0 W/m2
21:20 53.8 °F 53.1 °F 29.5 in NW 0.7 mph 2.2 mph 97% 0 in 0 W/m2
21:25 53.8 °F 53.1 °F 29.5 in NW 1.6 mph 3.1 mph 97% 0 in 0 W/m2
21:30 53.8 °F 53.1 °F 29.5 in NW 0.7 mph 3.1 mph 97% 0 in 0 W/m2
21:35 53.8 °F 53.1 °F 29.5 in NW 2.2 mph 3.1 mph 97% 0 in 0 W/m2
21:40 53.8 °F 53.1 °F 29.5 in NW 2.2 mph 3.1 mph 97% 0 in 0 W/m2
21:45 53.8 °F 53.1 °F 29.5 in NNW 0.7 mph 3.1 mph 97% 0 in 0 W/m2
21:50 53.6 °F 52.9 °F 29.5 in North 0.7 mph 3.1 mph 97% 0 in 0 W/m2
21:55 53.6 °F 52.9 °F 29.5 in North 0.7 mph 2.2 mph 97% 0 in 0 W/m2
22:00 53.6 °F 52.9 °F 29.5 in North 0.7 mph 3.1 mph 97% 0 in 0 W/m2
22:05 53.6 °F 52.9 °F 29.4 in NNE 0.7 mph 3.1 mph 97% 0 in 0 W/m2
22:10 53.6 °F 52.9 °F 29.4 in NE 1.6 mph 3.1 mph 97% 0 in 0 W/m2
22:15 53.6 °F 52.9 °F 29.4 in North 1.6 mph 3.1 mph 97% 0 in 0 W/m2
22:33 53.4 °F 52.9 °F 29.5 in NNE 0.7 mph 1.6 mph 98% 0 in 0 W/m2
22:38 53.6 °F 52.9 °F 29.5 in Calm   1.6 mph 97% 0 in 0 W/m2
22:43 53.6 °F 52.9 °F 29.5 in Calm   1.6 mph 97% 0 in 0 W/m2
22:48 53.6 °F 52.9 °F 29.5 in Calm   2.2 mph 97% 0 in 0 W/m2
22:53 53.6 °F 52.9 °F 29.4 in Calm   2.2 mph 97% 0 in 0 W/m2
22:58 53.4 °F 52.9 °F 29.4 in Calm   2.2 mph 98% 0 in 0 W/m2
23:03 53.4 °F 52.9 °F 29.4 in East 0.7 mph 2.2 mph 98% 0.01 in 0 W/m2
23:08 53.4 °F 52.9 °F 29.4 in Calm   0.7 mph 98% 0.01 in 0 W/m2
23:13 53.2 °F 52.7 °F 29.4 in Calm   0.7 mph 98% 0.01 in 0 W/m2
23:18 53.2 °F 52.7 °F 29.4 in Calm   0.7 mph 98% 0.01 in 0 W/m2
23:23 53.2 °F 52.7 °F 29.4 in SW 0.7 mph 1.6 mph 98% 0.01 in 0 W/m2
23:28 53.2 °F 52.7 °F 29.4 in West 1.6 mph 2.2 mph 98% 0.01 in 0 W/m2
23:33 53.1 °F 52.5 °F 29.4 in WNW 1.6 mph 3.8 mph 98% 0.01 in 0 W/m2
23:38 53.1 °F 52.5 °F 29.4 in NW 1.6 mph 3.8 mph 98% 0.01 in 0 W/m2
23:43 53.1 °F 52.5 °F 29.4 in NW 0.7 mph 3.1 mph 98% 0.01 in 0 W/m2
23:48 53.1 °F 52.5 °F 29.4 in NNW 0.7 mph 3.1 mph 98% 0.01 in 0 W/m2
23:53 52.9 °F 52.3 °F 29.4 in North 0.7 mph 2.2 mph 98% 0.01 in 0 W/m2
23:58 52.9 °F 52.3 °F 29.4 in Calm   2.2 mph 98% 0.01 in 0 W/m2
Northern Hawkes Bay. New Zealand Historic Data
Compliments of Weather Underground - 2 mb